sensor_id;sensor_type;location;lat;lon;timestamp;temperature;humidity
46752;DHT22;32497;48.936;9.270;2023-02-28T00:00:37;-3274.40;70.20
46752;DHT22;32497;48.936;9.270;2023-02-28T00:05:38;-3274.30;70.60
46752;DHT22;32497;48.936;9.270;2023-02-28T00:10:40;-3274.30;71.30
46752;DHT22;32497;48.936;9.270;2023-02-28T00:15:42;-3274.40;71.20
46752;DHT22;32497;48.936;9.270;2023-02-28T00:20:43;-3274.40;71.80
46752;DHT22;32497;48.936;9.270;2023-02-28T00:25:44;-3274.40;72.10
46752;DHT22;32497;48.936;9.270;2023-02-28T00:30:47;-3274.30;72.60
46752;DHT22;32497;48.936;9.270;2023-02-28T00:35:48;-3274.40;72.80
46752;DHT22;32497;48.936;9.270;2023-02-28T00:40:49;-3274.30;73.10
46752;DHT22;32497;48.936;9.270;2023-02-28T00:45:52;-3274.40;73.30
46752;DHT22;32497;48.936;9.270;2023-02-28T00:50:53;-3274.30;73.60
46752;DHT22;32497;48.936;9.270;2023-02-28T00:55:54;-3274.40;73.40
46752;DHT22;32497;48.936;9.270;2023-02-28T01:00:57;-3274.50;73.40
46752;DHT22;32497;48.936;9.270;2023-02-28T01:05:58;-3274.50;73.50
46752;DHT22;32497;48.936;9.270;2023-02-28T01:11:07;-3274.50;73.70
46752;DHT22;32497;48.936;9.270;2023-02-28T01:16:10;-3274.30;74.20
46752;DHT22;32497;48.936;9.270;2023-02-28T01:21:14;-3274.20;74.90
46752;DHT22;32497;48.936;9.270;2023-02-28T01:26:19;-3274.20;75.20
46752;DHT22;32497;48.936;9.270;2023-02-28T01:31:22;-3274.30;74.70
46752;DHT22;32497;48.936;9.270;2023-02-28T01:36:25;-3274.30;74.60
46752;DHT22;32497;48.936;9.270;2023-02-28T01:41:29;-3274.30;74.70
46752;DHT22;32497;48.936;9.270;2023-02-28T01:46:32;-3274.20;74.90
46752;DHT22;32497;48.936;9.270;2023-02-28T01:51:38;-3274.20;75.10
46752;DHT22;32497;48.936;9.270;2023-02-28T01:56:44;-3274.10;75.50
46752;DHT22;32497;48.936;9.270;2023-02-28T02:01:49;-3274.10;75.70
46752;DHT22;32497;48.936;9.270;2023-02-28T02:06:50;-3274.10;76.00
46752;DHT22;32497;48.936;9.270;2023-02-28T02:11:51;-3274.00;76.30
46752;DHT22;32497;48.936;9.270;2023-02-28T02:17:15;-3274.00;76.60
46752;DHT22;32497;48.936;9.270;2023-02-28T02:22:50;-3274.00;76.60
46752;DHT22;32497;48.936;9.270;2023-02-28T02:28:15;-3274.00;76.80
46752;DHT22;32497;48.936;9.270;2023-02-28T02:39:00;-3274.00;76.90
46752;DHT22;32497;48.936;9.270;2023-02-28T02:44:06;-3274.00;77.30
46752;DHT22;32497;48.936;9.270;2023-02-28T02:49:16;-3274.00;77.70
46752;DHT22;32497;48.936;9.270;2023-02-28T02:54:23;-3274.20;77.50
46752;DHT22;32497;48.936;9.270;2023-02-28T02:59:25;-3274.30;77.30
46752;DHT22;32497;48.936;9.270;2023-02-28T03:04:33;-3274.40;77.40
46752;DHT22;32497;48.936;9.270;2023-02-28T03:09:37;-3274.50;77.30
46752;DHT22;32497;48.936;9.270;2023-02-28T03:14:51;-3274.60;76.90
46752;DHT22;32497;48.936;9.270;2023-02-28T03:20:05;-3274.80;76.20
46752;DHT22;32497;48.936;9.270;2023-02-28T03:25:17;-3274.90;76.20
46752;DHT22;32497;48.936;9.270;2023-02-28T03:30:24;-3275.00;75.60
46752;DHT22;32497;48.936;9.270;2023-02-28T03:35:27;-3275.00;75.50
46752;DHT22;32497;48.936;9.270;2023-02-28T03:40:33;-3275.10;75.20
46752;DHT22;32497;48.936;9.270;2023-02-28T03:45:37;-3275.10;75.20
46752;DHT22;32497;48.936;9.270;2023-02-28T03:50:40;-3275.20;75.30
46752;DHT22;32497;48.936;9.270;2023-02-28T03:55:45;-3275.20;75.60
46752;DHT22;32497;48.936;9.270;2023-02-28T04:00:52;-3275.20;75.30
46752;DHT22;32497;48.936;9.270;2023-02-28T04:05:57;-3275.20;74.70
46752;DHT22;32497;48.936;9.270;2023-02-28T04:11:02;-3275.20;74.90
46752;DHT22;32497;48.936;9.270;2023-02-28T04:16:06;-3275.30;74.80
46752;DHT22;32497;48.936;9.270;2023-02-28T04:21:08;-3275.30;75.00
46752;DHT22;32497;48.936;9.270;2023-02-28T04:26:10;-3275.30;74.90
46752;DHT22;32497;48.936;9.270;2023-02-28T04:31:11;-3275.30;74.60
46752;DHT22;32497;48.936;9.270;2023-02-28T04:36:13;-3275.30;74.90
46752;DHT22;32497;48.936;9.270;2023-02-28T04:41:16;-3275.30;74.80
46752;DHT22;32497;48.936;9.270;2023-02-28T04:46:17;-3275.40;75.00
46752;DHT22;32497;48.936;9.270;2023-02-28T04:51:18;-3275.40;74.80
46752;DHT22;32497;48.936;9.270;2023-02-28T04:56:21;-3275.40;74.80
46752;DHT22;32497;48.936;9.270;2023-02-28T05:01:25;-3275.40;75.00
46752;DHT22;32497;48.936;9.270;2023-02-28T05:06:27;-3275.50;75.00
46752;DHT22;32497;48.936;9.270;2023-02-28T05:11:32;-3275.40;74.80
46752;DHT22;32497;48.936;9.270;2023-02-28T05:16:34;-3275.50;75.00
46752;DHT22;32497;48.936;9.270;2023-02-28T05:21:36;-3275.40;75.10
46752;DHT22;32497;48.936;9.270;2023-02-28T05:26:41;-3275.50;74.30
46752;DHT22;32497;48.936;9.270;2023-02-28T05:31:42;-3275.50;74.30
46752;DHT22;32497;48.936;9.270;2023-02-28T05:36:43;-3275.50;74.40
46752;DHT22;32497;48.936;9.270;2023-02-28T05:41:47;-3275.50;74.60
46752;DHT22;32497;48.936;9.270;2023-02-28T05:46:48;-3275.50;74.10
46752;DHT22;32497;48.936;9.270;2023-02-28T05:51:49;-3275.50;74.10
46752;DHT22;32497;48.936;9.270;2023-02-28T05:56:51;-3275.50;74.00
46752;DHT22;32497;48.936;9.270;2023-02-28T06:01:53;-3275.50;74.20
46752;DHT22;32497;48.936;9.270;2023-02-28T06:06:54;-3275.50;74.00
46752;DHT22;32497;48.936;9.270;2023-02-28T06:11:57;-3275.50;74.30
46752;DHT22;32497;48.936;9.270;2023-02-28T06:16:59;-3275.50;74.30
46752;DHT22;32497;48.936;9.270;2023-02-28T06:22:00;-3275.60;73.70
46752;DHT22;32497;48.936;9.270;2023-02-28T06:27:02;-3275.60;73.70
46752;DHT22;32497;48.936;9.270;2023-02-28T06:32:04;-3275.60;74.20
46752;DHT22;32497;48.936;9.270;2023-02-28T06:37:05;-3275.70;73.80
46752;DHT22;32497;48.936;9.270;2023-02-28T06:42:07;-3275.70;73.10
46752;DHT22;32497;48.936;9.270;2023-02-28T06:47:09;-3275.70;73.60
46752;DHT22;32497;48.936;9.270;2023-02-28T06:52:10;-3275.70;74.20
46752;DHT22;32497;48.936;9.270;2023-02-28T06:57:12;-3275.80;73.60
46752;DHT22;32497;48.936;9.270;2023-02-28T07:02:13;-3276.00;73.10
46752;DHT22;32497;48.936;9.270;2023-02-28T07:07:14;-3275.90;73.30
46752;DHT22;32497;48.936;9.270;2023-02-28T07:12:17;-3276.00;72.90
46752;DHT22;32497;48.936;9.270;2023-02-28T07:17:18;-3276.00;72.60
46752;DHT22;32497;48.936;9.270;2023-02-28T07:22:19;-3276.10;72.70
46752;DHT22;32497;48.936;9.270;2023-02-28T07:27:21;-3276.10;72.50
46752;DHT22;32497;48.936;9.270;2023-02-28T07:32:22;-3276.10;72.10
46752;DHT22;32497;48.936;9.270;2023-02-28T07:37:24;-3276.20;71.80
46752;DHT22;32497;48.936;9.270;2023-02-28T07:42:26;-3276.30;71.50
46752;DHT22;32497;48.936;9.270;2023-02-28T07:47:29;-3276.30;71.90
46752;DHT22;32497;48.936;9.270;2023-02-28T07:52:30;-3276.30;71.70
46752;DHT22;32497;48.936;9.270;2023-02-28T07:57:32;-3276.50;72.10
46752;DHT22;32497;48.936;9.270;2023-02-28T08:02:33;-3276.60;71.80
46752;DHT22;32497;48.936;9.270;2023-02-28T08:07:34;-3276.60;71.40
46752;DHT22;32497;48.936;9.270;2023-02-28T08:12:37;-3276.60;70.50
46752;DHT22;32497;48.936;9.270;2023-02-28T08:17:38;-3276.70;70.40
46752;DHT22;32497;48.936;9.270;2023-02-28T08:22:39;-3276.70;69.90
46752;DHT22;32497;48.936;9.270;2023-02-28T08:27:42;0.00;69.70
46752;DHT22;32497;48.936;9.270;2023-02-28T08:32:43;0.10;70.00
46752;DHT22;32497;48.936;9.270;2023-02-28T08:37:44;0.20;68.80
46752;DHT22;32497;48.936;9.270;2023-02-28T08:42:46;0.60;67.70
46752;DHT22;32497;48.936;9.270;2023-02-28T08:47:48;0.60;67.40
46752;DHT22;32497;48.936;9.270;2023-02-28T08:52:49;0.70;67.20
46752;DHT22;32497;48.936;9.270;2023-02-28T08:57:51;0.60;66.60
46752;DHT22;32497;48.936;9.270;2023-02-28T09:02:52;0.60;66.70
46752;DHT22;32497;48.936;9.270;2023-02-28T09:07:53;0.70;66.60
46752;DHT22;32497;48.936;9.270;2023-02-28T09:12:56;1.00;65.50
46752;DHT22;32497;48.936;9.270;2023-02-28T09:17:57;1.10;65.20
46752;DHT22;32497;48.936;9.270;2023-02-28T09:22:58;1.10;64.90
46752;DHT22;32497;48.936;9.270;2023-02-28T09:28:01;1.40;64.40
46752;DHT22;32497;48.936;9.270;2023-02-28T09:33:02;1.90;63.10
46752;DHT22;32497;48.936;9.270;2023-02-28T09:38:04;2.10;60.60
46752;DHT22;32497;48.936;9.270;2023-02-28T09:43:10;2.20;60.50
46752;DHT22;32497;48.936;9.270;2023-02-28T09:48:16;2.60;58.60
46752;DHT22;32497;48.936;9.270;2023-02-28T09:53:22;2.70;58.00
46752;DHT22;32497;48.936;9.270;2023-02-28T09:58:32;2.90;57.80
46752;DHT22;32497;48.936;9.270;2023-02-28T10:03:37;3.10;57.30
46752;DHT22;32497;48.936;9.270;2023-02-28T10:08:43;3.20;56.10
46752;DHT22;32497;48.936;9.270;2023-02-28T10:13:52;3.10;57.10
46752;DHT22;32497;48.936;9.270;2023-02-28T10:18:57;2.90;56.80
46752;DHT22;32497;48.936;9.270;2023-02-28T10:24:05;3.00;56.60
46752;DHT22;32497;48.936;9.270;2023-02-28T10:29:13;3.10;56.90
46752;DHT22;32497;48.936;9.270;2023-02-28T10:34:14;3.30;55.70
46752;DHT22;32497;48.936;9.270;2023-02-28T10:39:36;3.50;55.00
46752;DHT22;32497;48.936;9.270;2023-02-28T10:44:38;3.50;55.20
46752;DHT22;32497;48.936;9.270;2023-02-28T10:49:47;3.50;54.80
46752;DHT22;32497;48.936;9.270;2023-02-28T10:54:48;4.00;53.90
46752;DHT22;32497;48.936;9.270;2023-02-28T10:59:52;4.20;52.50
46752;DHT22;32497;48.936;9.270;2023-02-28T11:04:54;5.10;52.70
46752;DHT22;32497;48.936;9.270;2023-02-28T11:09:57;5.60;49.80
46752;DHT22;32497;48.936;9.270;2023-02-28T11:15:02;5.80;48.70
46752;DHT22;32497;48.936;9.270;2023-02-28T11:20:06;5.50;50.00
46752;DHT22;32497;48.936;9.270;2023-02-28T11:25:16;5.10;49.70
46752;DHT22;32497;48.936;9.270;2023-02-28T11:30:34;5.00;50.00
46752;DHT22;32497;48.936;9.270;2023-02-28T11:35:38;4.80;49.90
46752;DHT22;32497;48.936;9.270;2023-02-28T11:40:47;4.60;50.80
46752;DHT22;32497;48.936;9.270;2023-02-28T11:46:00;4.40;51.20
46752;DHT22;32497;48.936;9.270;2023-02-28T11:51:13;4.30;52.10
46752;DHT22;32497;48.936;9.270;2023-02-28T11:56:21;4.90;50.50
46752;DHT22;32497;48.936;9.270;2023-02-28T12:01:34;4.80;50.10
46752;DHT22;32497;48.936;9.270;2023-02-28T12:06:44;4.70;50.50
46752;DHT22;32497;48.936;9.270;2023-02-28T12:11:52;4.70;50.40
46752;DHT22;32497;48.936;9.270;2023-02-28T12:17:02;4.90;50.70
46752;DHT22;32497;48.936;9.270;2023-02-28T12:22:20;4.90;50.10
46752;DHT22;32497;48.936;9.270;2023-02-28T12:27:25;4.90;49.90
46752;DHT22;32497;48.936;9.270;2023-02-28T12:32:31;5.10;50.90
46752;DHT22;32497;48.936;9.270;2023-02-28T12:37:37;4.90;50.80
46752;DHT22;32497;48.936;9.270;2023-02-28T12:42:42;5.40;48.70
46752;DHT22;32497;48.936;9.270;2023-02-28T12:47:50;5.80;48.10
46752;DHT22;32497;48.936;9.270;2023-02-28T12:52:56;6.40;47.50
46752;DHT22;32497;48.936;9.270;2023-02-28T12:58:08;7.60;43.20
46752;DHT22;32497;48.936;9.270;2023-02-28T13:03:37;8.10;42.70
46752;DHT22;32497;48.936;9.270;2023-02-28T13:09:03;9.30;38.90
46752;DHT22;32497;48.936;9.270;2023-02-28T13:14:14;9.90;38.10
46752;DHT22;32497;48.936;9.270;2023-02-28T13:19:20;9.60;38.80
46752;DHT22;32497;48.936;9.270;2023-02-28T13:24:45;9.70;38.10
46752;DHT22;32497;48.936;9.270;2023-02-28T13:29:46;10.60;36.80
46752;DHT22;32497;48.936;9.270;2023-02-28T13:35:13;10.70;36.60
46752;DHT22;32497;48.936;9.270;2023-02-28T13:40:30;10.40;36.20
46752;DHT22;32497;48.936;9.270;2023-02-28T13:45:32;10.10;37.30
46752;DHT22;32497;48.936;9.270;2023-02-28T13:50:36;9.30;38.80
46752;DHT22;32497;48.936;9.270;2023-02-28T13:55:43;9.30;40.40
46752;DHT22;32497;48.936;9.270;2023-02-28T14:01:02;9.90;37.60
46752;DHT22;32497;48.936;9.270;2023-02-28T14:06:16;9.50;39.20
46752;DHT22;32497;48.936;9.270;2023-02-28T14:11:28;9.60;38.50
46752;DHT22;32497;48.936;9.270;2023-02-28T14:16:37;9.60;37.90
46752;DHT22;32497;48.936;9.270;2023-02-28T14:21:50;10.40;37.70
46752;DHT22;32497;48.936;9.270;2023-02-28T14:27:16;10.90;36.00
46752;DHT22;32497;48.936;9.270;2023-02-28T14:32:26;10.50;37.00
46752;DHT22;32497;48.936;9.270;2023-02-28T14:37:33;11.10;36.40
46752;DHT22;32497;48.936;9.270;2023-02-28T14:42:38;9.90;38.30
46752;DHT22;32497;48.936;9.270;2023-02-28T14:47:39;10.00;37.90
46752;DHT22;32497;48.936;9.270;2023-02-28T14:52:44;10.30;37.40
46752;DHT22;32497;48.936;9.270;2023-02-28T14:57:52;10.60;37.60
46752;DHT22;32497;48.936;9.270;2023-02-28T15:02:54;11.40;36.90
46752;DHT22;32497;48.936;9.270;2023-02-28T15:08:10;10.60;37.60
46752;DHT22;32497;48.936;9.270;2023-02-28T15:13:13;9.90;38.20
46752;DHT22;32497;48.936;9.270;2023-02-28T15:18:23;9.40;40.40
46752;DHT22;32497;48.936;9.270;2023-02-28T15:23:28;10.00;38.00
46752;DHT22;32497;48.936;9.270;2023-02-28T15:28:30;9.20;39.40
46752;DHT22;32497;48.936;9.270;2023-02-28T15:33:32;8.20;41.80
46752;DHT22;32497;48.936;9.270;2023-02-28T15:38:36;7.70;43.70
46752;DHT22;32497;48.936;9.270;2023-02-28T15:43:38;6.50;46.60
46752;DHT22;32497;48.936;9.270;2023-02-28T15:48:44;6.10;47.90
46752;DHT22;32497;48.936;9.270;2023-02-28T15:53:49;5.80;49.00
46752;DHT22;32497;48.936;9.270;2023-02-28T15:58:53;5.10;50.40
46752;DHT22;32497;48.936;9.270;2023-02-28T16:03:59;4.80;52.00
46752;DHT22;32497;48.936;9.270;2023-02-28T16:09:02;4.50;52.80
46752;DHT22;32497;48.936;9.270;2023-02-28T16:14:04;4.30;53.20
46752;DHT22;32497;48.936;9.270;2023-02-28T16:19:08;4.10;53.90
46752;DHT22;32497;48.936;9.270;2023-02-28T16:24:10;3.90;54.70
46752;DHT22;32497;48.936;9.270;2023-02-28T16:29:14;3.70;55.00
46752;DHT22;32497;48.936;9.270;2023-02-28T16:34:16;3.60;55.90
46752;DHT22;32497;48.936;9.270;2023-02-28T16:39:19;3.40;56.20
46752;DHT22;32497;48.936;9.270;2023-02-28T16:44:26;3.30;57.10
46752;DHT22;32497;48.936;9.270;2023-02-28T16:49:28;3.10;57.10
46752;DHT22;32497;48.936;9.270;2023-02-28T16:54:30;3.00;57.60
46752;DHT22;32497;48.936;9.270;2023-02-28T16:59:32;2.90;58.10
46752;DHT22;32497;48.936;9.270;2023-02-28T17:04:33;2.60;58.90
46752;DHT22;32497;48.936;9.270;2023-02-28T17:09:35;2.30;59.60
46752;DHT22;32497;48.936;9.270;2023-02-28T17:14:36;2.10;60.30
46752;DHT22;32497;48.936;9.270;2023-02-28T17:19:38;2.00;60.70
46752;DHT22;32497;48.936;9.270;2023-02-28T17:24:40;1.80;61.00
46752;DHT22;32497;48.936;9.270;2023-02-28T17:29:41;1.70;61.40
46752;DHT22;32497;48.936;9.270;2023-02-28T17:34:42;1.60;61.90
46752;DHT22;32497;48.936;9.270;2023-02-28T17:39:45;1.60;62.00
46752;DHT22;32497;48.936;9.270;2023-02-28T17:44:46;1.60;62.20
46752;DHT22;32497;48.936;9.270;2023-02-28T17:49:47;1.50;62.30
46752;DHT22;32497;48.936;9.270;2023-02-28T17:54:50;1.40;62.60
46752;DHT22;32497;48.936;9.270;2023-02-28T17:59:51;1.40;62.80
46752;DHT22;32497;48.936;9.270;2023-02-28T18:04:52;1.20;63.20
46752;DHT22;32497;48.936;9.270;2023-02-28T18:09:54;1.20;63.50
46752;DHT22;32497;48.936;9.270;2023-02-28T18:14:55;1.10;63.50
46752;DHT22;32497;48.936;9.270;2023-02-28T18:19:56;1.10;63.70
46752;DHT22;32497;48.936;9.270;2023-02-28T18:24:59;1.10;63.80
46752;DHT22;32497;48.936;9.270;2023-02-28T18:30:00;1.00;64.00
46752;DHT22;32497;48.936;9.270;2023-02-28T18:35:01;0.90;64.40
46752;DHT22;32497;48.936;9.270;2023-02-28T18:40:05;0.80;64.70
46752;DHT22;32497;48.936;9.270;2023-02-28T18:45:07;0.80;65.00
46752;DHT22;32497;48.936;9.270;2023-02-28T18:50:10;0.70;65.30
46752;DHT22;32497;48.936;9.270;2023-02-28T18:55:13;0.60;65.50
46752;DHT22;32497;48.936;9.270;2023-02-28T19:00:15;0.60;65.70
46752;DHT22;32497;48.936;9.270;2023-02-28T19:05:18;0.60;65.60
46752;DHT22;32497;48.936;9.270;2023-02-28T19:10:20;0.60;65.80
46752;DHT22;32497;48.936;9.270;2023-02-28T19:15:22;0.50;66.00
46752;DHT22;32497;48.936;9.270;2023-02-28T19:20:23;0.40;66.30
46752;DHT22;32497;48.936;9.270;2023-02-28T19:25:25;0.40;66.60
46752;DHT22;32497;48.936;9.270;2023-02-28T19:30:27;0.40;66.50
46752;DHT22;32497;48.936;9.270;2023-02-28T19:35:28;0.30;66.60
46752;DHT22;32497;48.936;9.270;2023-02-28T19:40:30;0.30;66.70
46752;DHT22;32497;48.936;9.270;2023-02-28T19:45:31;0.20;67.00
46752;DHT22;32497;48.936;9.270;2023-02-28T19:50:33;0.10;67.40
46752;DHT22;32497;48.936;9.270;2023-02-28T19:55:37;0.10;67.60
46752;DHT22;32497;48.936;9.270;2023-02-28T20:00:39;0.00;68.10
46752;DHT22;32497;48.936;9.270;2023-02-28T20:05:40;0.00;68.50
46752;DHT22;32497;48.936;9.270;2023-02-28T20:10:43;-3276.70;68.80
46752;DHT22;32497;48.936;9.270;2023-02-28T20:15:44;-3276.70;68.90
46752;DHT22;32497;48.936;9.270;2023-02-28T20:20:45;-3276.60;69.10
46752;DHT22;32497;48.936;9.270;2023-02-28T20:25:47;-3276.60;69.40
46752;DHT22;32497;48.936;9.270;2023-02-28T20:30:49;-3276.50;69.80
46752;DHT22;32497;48.936;9.270;2023-02-28T20:35:57;-3276.50;70.10
46752;DHT22;32497;48.936;9.270;2023-02-28T20:41:00;-3276.40;70.50
46752;DHT22;32497;48.936;9.270;2023-02-28T20:46:01;-3276.40;70.80
46752;DHT22;32497;48.936;9.270;2023-02-28T20:51:04;-3276.40;70.90
46752;DHT22;32497;48.936;9.270;2023-02-28T20:56:09;-3276.40;70.80
46752;DHT22;32497;48.936;9.270;2023-02-28T21:01:11;-3276.40;71.10
46752;DHT22;32497;48.936;9.270;2023-02-28T21:06:14;-3276.40;71.60
46752;DHT22;32497;48.936;9.270;2023-02-28T21:11:19;-3276.30;71.90
46752;DHT22;32497;48.936;9.270;2023-02-28T21:16:22;-3276.50;71.50
46752;DHT22;32497;48.936;9.270;2023-02-28T21:21:24;-3276.60;70.90
46752;DHT22;32497;48.936;9.270;2023-02-28T21:26:26;-3276.60;70.80
46752;DHT22;32497;48.936;9.270;2023-02-28T21:31:29;-3276.60;70.60
46752;DHT22;32497;48.936;9.270;2023-02-28T21:36:33;-3276.50;70.90
46752;DHT22;32497;48.936;9.270;2023-02-28T21:41:36;-3276.40;71.60
46752;DHT22;32497;48.936;9.270;2023-02-28T21:46:37;-3276.40;71.60
46752;DHT22;32497;48.936;9.270;2023-02-28T21:51:39;-3276.20;72.10
46752;DHT22;32497;48.936;9.270;2023-02-28T21:56:41;-3276.20;72.50
46752;DHT22;32497;48.936;9.270;2023-02-28T22:01:43;-3276.10;72.90
46752;DHT22;32497;48.936;9.270;2023-02-28T22:06:44;-3276.10;73.00
46752;DHT22;32497;48.936;9.270;2023-02-28T22:11:47;-3276.10;73.20
46752;DHT22;32497;48.936;9.270;2023-02-28T22:16:48;-3276.10;73.60
46752;DHT22;32497;48.936;9.270;2023-02-28T22:21:50;-3276.10;73.60
46752;DHT22;32497;48.936;9.270;2023-02-28T22:26:52;-3276.10;73.80
46752;DHT22;32497;48.936;9.270;2023-02-28T22:31:53;-3276.10;73.90
46752;DHT22;32497;48.936;9.270;2023-02-28T22:36:55;-3276.10;73.60
46752;DHT22;32497;48.936;9.270;2023-02-28T22:41:57;-3276.00;73.70
46752;DHT22;32497;48.936;9.270;2023-02-28T22:46:58;-3276.00;74.30
46752;DHT22;32497;48.936;9.270;2023-02-28T22:51:59;-3275.90;74.50
46752;DHT22;32497;48.936;9.270;2023-02-28T22:57:02;-3275.80;74.70
46752;DHT22;32497;48.936;9.270;2023-02-28T23:02:03;-3275.80;75.20
46752;DHT22;32497;48.936;9.270;2023-02-28T23:07:04;-3275.80;75.10
46752;DHT22;32497;48.936;9.270;2023-02-28T23:12:07;-3275.90;74.90
46752;DHT22;32497;48.936;9.270;2023-02-28T23:17:08;-3276.00;74.50
46752;DHT22;32497;48.936;9.270;2023-02-28T23:22:09;-3276.00;74.50
46752;DHT22;32497;48.936;9.270;2023-02-28T23:27:12;-3276.00;74.60
46752;DHT22;32497;48.936;9.270;2023-02-28T23:32:13;-3275.90;75.00
46752;DHT22;32497;48.936;9.270;2023-02-28T23:37:14;-3275.90;75.20
46752;DHT22;32497;48.936;9.270;2023-02-28T23:42:17;-3275.70;75.60
46752;DHT22;32497;48.936;9.270;2023-02-28T23:47:18;-3275.70;75.70
46752;DHT22;32497;48.936;9.270;2023-02-28T23:52:19;-3275.80;75.90
46752;DHT22;32497;48.936;9.270;2023-02-28T23:57:21;-3275.80;75.80
